createdAt,value
2018-12-18T00:02:00.501Z,-3.34
2018-12-18T00:04:29.221Z,-3.41
2018-12-18T00:06:58.275Z,-3.45
2018-12-18T00:09:27.049Z,-3.41
2018-12-18T00:11:59.256Z,-3.44
2018-12-18T00:14:26.597Z,-3.48
2018-12-18T00:16:55.419Z,-3.52
2018-12-18T00:19:24.241Z,-3.52
2018-12-18T00:21:52.994Z,-3.56
2018-12-18T00:24:22.019Z,-3.58
2018-12-18T00:26:50.883Z,-3.54
2018-12-18T00:29:20.044Z,-3.49
2018-12-18T00:31:48.859Z,-3.49
2018-12-18T00:34:18.024Z,-3.48
2018-12-18T00:36:46.669Z,-3.43
2018-12-18T00:39:15.935Z,-3.39
2018-12-18T00:41:44.912Z,-3.35
2018-12-18T00:44:13.762Z,-3.37
2018-12-18T00:46:42.685Z,-3.34
2018-12-18T00:49:11.704Z,-3.33
2018-12-18T00:51:40.452Z,-3.27
2018-12-18T00:54:09.345Z,-3.23
2018-12-18T00:56:38.448Z,-3.21
2018-12-18T00:59:07.335Z,-3.20
2018-12-18T01:01:36.105Z,-3.17
2018-12-18T01:04:05.034Z,-3.16
2018-12-18T01:06:34.361Z,-3.15
2018-12-18T01:09:09.301Z,-3.17
2018-12-18T01:11:38.012Z,-3.14
2018-12-18T01:14:06.973Z,-3.11
2018-12-18T01:16:35.767Z,-3.09
2018-12-18T01:19:04.660Z,-3.08
2018-12-18T01:21:33.555Z,-3.06
2018-12-18T01:24:02.343Z,-3.05
2018-12-18T01:26:31.263Z,-3.04
2018-12-18T01:29:00.834Z,-3.04
2018-12-18T01:31:29.618Z,-2.98
2018-12-18T01:33:59.425Z,-3.36
2018-12-18T01:36:28.326Z,-2.93
2018-12-18T01:38:57.180Z,-2.93
2018-12-18T01:41:25.904Z,-2.93
2018-12-18T01:43:54.680Z,-2.94
2018-12-18T01:46:23.613Z,-2.94
2018-12-18T01:48:52.786Z,-2.93
2018-12-18T01:51:22.056Z,-2.92
2018-12-18T01:53:51.058Z,-2.91
2018-12-18T01:56:20.097Z,-2.91
2018-12-18T01:58:49.693Z,-2.93
2018-12-18T02:01:18.383Z,-2.88
2018-12-18T02:03:47.137Z,-2.87
2018-12-18T02:06:15.858Z,-2.90
2018-12-18T02:08:45.032Z,-2.90
2018-12-18T02:11:13.942Z,-2.92
2018-12-18T02:13:43.008Z,-2.88
2018-12-18T02:16:12.037Z,-2.87
2018-12-18T02:18:40.753Z,-2.89
2018-12-18T02:21:09.483Z,-2.88
2018-12-18T02:23:38.300Z,-2.85
2018-12-18T02:26:07.202Z,-2.85
2018-12-18T02:28:36.311Z,-2.83
2018-12-18T02:31:05.423Z,-2.87
2018-12-18T02:33:34.121Z,-2.89
2018-12-18T02:36:02.867Z,-2.89
2018-12-18T02:38:31.928Z,-2.88
2018-12-18T02:41:00.859Z,-2.88
2018-12-18T02:43:29.601Z,-2.91
2018-12-18T02:45:58.551Z,-2.92
2018-12-18T02:48:27.461Z,-2.92
2018-12-18T02:50:56.531Z,-2.95
2018-12-18T02:53:25.218Z,-2.92
2018-12-18T02:55:54.455Z,-2.92
2018-12-18T02:58:23.499Z,-2.97
2018-12-18T03:00:52.580Z,-2.95
2018-12-18T03:03:21.702Z,-2.92
2018-12-18T03:05:50.608Z,-2.91
2018-12-18T03:08:19.662Z,-2.91
2018-12-18T03:10:49.004Z,-2.92
2018-12-18T03:13:17.835Z,-2.91
2018-12-18T03:15:46.642Z,-2.87
2018-12-18T03:18:15.844Z,-2.84
2018-12-18T03:20:44.875Z,-2.83
2018-12-18T03:23:13.778Z,-2.82
2018-12-18T03:25:42.755Z,-2.85
2018-12-18T03:28:11.694Z,-2.83
2018-12-18T03:30:40.421Z,-2.91
2018-12-18T03:33:09.584Z,-2.84
2018-12-18T03:35:38.637Z,-2.85
2018-12-18T03:38:07.403Z,-2.84
2018-12-18T03:40:36.202Z,-2.81
2018-12-18T03:43:05.063Z,-2.78
2018-12-18T03:45:34.105Z,-2.78
2018-12-18T03:48:03.014Z,-2.79
2018-12-18T03:50:31.728Z,-2.79
2018-12-18T03:53:00.484Z,-2.82
2018-12-18T03:55:29.205Z,-2.84
2018-12-18T03:57:58.051Z,-2.83
2018-12-18T04:00:33.555Z,-2.82
2018-12-18T04:03:02.509Z,-2.81
2018-12-18T04:05:31.524Z,-2.79
2018-12-18T04:08:00.367Z,-2.82
2018-12-18T04:10:29.580Z,-2.80
2018-12-18T04:12:58.493Z,-2.77
2018-12-18T04:15:27.522Z,-2.77
2018-12-18T04:17:56.990Z,-2.76
2018-12-18T04:20:26.101Z,-2.76
2018-12-18T04:22:55.059Z,-2.79
2018-12-18T04:25:23.866Z,-2.77
2018-12-18T04:27:53.077Z,-2.78
2018-12-18T04:30:22.167Z,-2.77
2018-12-18T04:32:51.605Z,-2.75
2018-12-18T04:35:20.323Z,-2.73
2018-12-18T04:37:48.999Z,-2.76
2018-12-18T04:40:17.869Z,-2.73
2018-12-18T04:42:46.940Z,-2.71
2018-12-18T04:45:15.845Z,-2.73
2018-12-18T04:47:45.111Z,-2.73
2018-12-18T04:50:14.212Z,-2.73
2018-12-18T04:52:43.416Z,-2.74
2018-12-18T04:55:12.426Z,-2.76
2018-12-18T04:57:41.337Z,-2.75
2018-12-18T05:00:10.810Z,-2.73
2018-12-18T05:02:40.117Z,-2.70
2018-12-18T05:05:08.977Z,-2.67
2018-12-18T05:07:37.738Z,-2.65
2018-12-18T05:10:06.950Z,-2.67
2018-12-18T05:12:36.608Z,-2.63
2018-12-18T05:15:06.334Z,-2.61
2018-12-18T05:17:35.568Z,-2.64
2018-12-18T05:20:04.577Z,-2.66
2018-12-18T05:22:33.295Z,-2.70
2018-12-18T05:25:02.064Z,-2.72
2018-12-18T05:27:30.821Z,-2.72
2018-12-18T05:29:59.635Z,-2.78
2018-12-18T05:32:28.434Z,-2.76
2018-12-18T05:34:57.261Z,-2.77
2018-12-18T05:37:26.277Z,-2.75
2018-12-18T05:39:55.130Z,-2.76
2018-12-18T05:42:23.865Z,-2.79
2018-12-18T05:44:52.752Z,-2.82
2018-12-18T05:47:21.403Z,-2.82
2018-12-18T05:49:50.194Z,-2.86
2018-12-18T05:52:19.191Z,-2.86
2018-12-18T05:54:48.080Z,-2.87
2018-12-18T05:57:17.280Z,-2.89
2018-12-18T05:59:46.971Z,-2.92
2018-12-18T06:02:15.686Z,-2.92
2018-12-18T06:04:44.646Z,-2.93
2018-12-18T06:07:13.872Z,-2.96
2018-12-18T06:09:42.622Z,-3.92
2018-12-18T06:12:11.743Z,-2.95
2018-12-18T06:14:40.400Z,-2.91
2018-12-18T06:17:09.131Z,-2.94
2018-12-18T06:19:38.390Z,-2.95
2018-12-18T06:22:07.333Z,-2.95
2018-12-18T06:24:36.626Z,-2.94
2018-12-18T06:27:05.628Z,-2.98
2018-12-18T06:29:34.703Z,-3.00
2018-12-18T06:32:03.419Z,-3.02
2018-12-18T06:34:32.145Z,-3.00
2018-12-18T06:37:00.884Z,-3.04
2018-12-18T06:39:29.886Z,-3.01
2018-12-18T06:41:58.887Z,-3.04
2018-12-18T06:44:28.019Z,-3.10
2018-12-18T06:46:57.073Z,-3.06
2018-12-18T06:49:25.892Z,-3.08
2018-12-18T06:51:54.772Z,-3.08
2018-12-18T06:54:23.506Z,-3.09
2018-12-18T06:56:52.323Z,-3.10
2018-12-18T06:59:21.223Z,-3.09
2018-12-18T07:01:50.194Z,-3.06
2018-12-18T07:04:19.303Z,-3.04
2018-12-18T07:06:48.362Z,-3.05
2018-12-18T07:09:17.595Z,-3.08
2018-12-18T07:11:46.515Z,-3.07
2018-12-18T07:14:15.578Z,-3.12
2018-12-18T07:16:44.370Z,-3.15
2018-12-18T07:19:13.257Z,-3.17
2018-12-18T07:21:42.079Z,-3.18
2018-12-18T07:24:13.992Z,-3.20
2018-12-18T07:26:41.914Z,-3.21
2018-12-18T07:29:10.711Z,-3.21
2018-12-18T07:31:39.801Z,-3.24
2018-12-18T07:34:09.314Z,-3.23
2018-12-18T07:36:38.423Z,-3.28
2018-12-18T07:39:09.007Z,-3.25
2018-12-18T07:41:37.694Z,-3.25
2018-12-18T07:44:06.459Z,-3.27
2018-12-18T07:46:35.597Z,-3.29
2018-12-18T07:49:04.676Z,-3.36
2018-12-18T07:51:33.467Z,-3.41
2018-12-18T07:54:02.496Z,-3.43
2018-12-18T07:56:31.699Z,-3.45
2018-12-18T07:59:00.503Z,-3.48
2018-12-18T08:01:29.218Z,-3.56
2018-12-18T08:03:57.925Z,-3.55
2018-12-18T08:06:26.843Z,-3.58
2018-12-18T08:08:55.730Z,-3.57
2018-12-18T08:11:24.839Z,-3.57
2018-12-18T08:13:53.731Z,-3.56
2018-12-18T08:16:22.556Z,-3.57
2018-12-18T08:18:51.528Z,-3.58
2018-12-18T08:21:20.252Z,-3.56
2018-12-18T08:23:49.401Z,-3.56
2018-12-18T08:26:18.884Z,-3.55
2018-12-18T08:28:47.897Z,-3.54
2018-12-18T08:31:16.580Z,-3.57
2018-12-18T08:33:45.583Z,-3.54
2018-12-18T08:36:14.659Z,-3.56
2018-12-18T08:38:43.726Z,-3.57
2018-12-18T08:41:12.464Z,-3.54
2018-12-18T08:43:41.475Z,-3.52
2018-12-18T08:46:10.502Z,-3.54
2018-12-18T08:48:39.573Z,-3.54
2018-12-18T08:51:08.236Z,-3.54
2018-12-18T08:53:37.334Z,-3.52
2018-12-18T08:56:06.373Z,-3.52
2018-12-18T08:58:35.229Z,-3.49
2018-12-18T09:01:04.728Z,-3.51
2018-12-18T09:03:33.835Z,-3.55
2018-12-18T09:06:02.510Z,-3.51
2018-12-18T09:08:31.773Z,-3.47
2018-12-18T09:11:00.933Z,-3.45
2018-12-18T09:13:30.162Z,-3.43
2018-12-18T09:15:59.191Z,-3.41
2018-12-18T09:18:28.130Z,-3.42
2018-12-18T09:20:56.940Z,-3.40
2018-12-18T09:23:25.777Z,-3.40
2018-12-18T09:25:54.804Z,-3.39
2018-12-18T09:28:23.494Z,-3.42
2018-12-18T09:30:52.310Z,-3.42
2018-12-18T09:33:22.015Z,-3.44
2018-12-18T09:35:51.023Z,-3.42
2018-12-18T09:38:24.967Z,-3.38
2018-12-18T09:40:59.111Z,-3.37
2018-12-18T09:43:33.198Z,-3.40
2018-12-18T09:46:02.148Z,-3.78
2018-12-18T09:48:31.369Z,-3.37
2018-12-18T09:51:00.158Z,-3.57
2018-12-18T09:53:29.174Z,-3.37
2018-12-18T09:55:58.043Z,-3.37
2018-12-18T09:58:27.509Z,-3.39
2018-12-18T10:00:56.934Z,-3.37
2018-12-18T10:03:25.974Z,-3.37
2018-12-18T10:05:56.454Z,-3.37
2018-12-18T10:08:25.981Z,-3.38
2018-12-18T10:10:55.199Z,-3.35
2018-12-18T10:13:24.485Z,-3.40
2018-12-18T10:15:53.195Z,-3.37
2018-12-18T10:18:22.422Z,-3.40
2018-12-18T10:20:51.293Z,-3.43
2018-12-18T10:23:19.901Z,-3.48
2018-12-18T10:25:49.353Z,-3.54
2018-12-18T10:28:18.056Z,-3.52
2018-12-18T10:30:46.931Z,-3.53
2018-12-18T10:33:16.448Z,-3.56
2018-12-18T10:35:45.468Z,-3.55
2018-12-18T10:38:14.313Z,-3.55
2018-12-18T10:40:43.224Z,-3.55
2018-12-18T10:43:11.976Z,-3.56
2018-12-18T10:45:41.082Z,-3.85
2018-12-18T10:48:09.843Z,-3.60
2018-12-18T10:50:39.749Z,-3.65
2018-12-18T10:53:08.514Z,-3.64
2018-12-18T10:55:37.214Z,-3.63
2018-12-18T10:58:06.092Z,-3.64
2018-12-18T11:00:40.236Z,-3.65
2018-12-18T11:03:09.093Z,-3.68
2018-12-18T11:05:38.116Z,-3.66
2018-12-18T11:08:07.103Z,-3.68
2018-12-18T11:10:35.809Z,-3.70
2018-12-18T11:13:10.231Z,-3.73
2018-12-18T11:15:38.908Z,-3.72
2018-12-18T11:18:07.675Z,-3.71
2018-12-18T11:20:36.351Z,-3.77
2018-12-18T11:23:05.257Z,-3.72
2018-12-18T11:25:34.125Z,-3.71
2018-12-18T11:28:03.183Z,-3.71
2018-12-18T11:30:32.020Z,-3.67
2018-12-18T11:33:01.152Z,-3.67
2018-12-18T11:35:29.995Z,-3.69
2018-12-18T11:37:59.705Z,-3.67
2018-12-18T11:40:28.735Z,-3.64
2018-12-18T11:42:58.034Z,-3.63
2018-12-18T11:45:26.800Z,-3.64
2018-12-18T11:47:55.624Z,-3.65
2018-12-18T11:50:24.295Z,-3.63
2018-12-18T11:52:53.145Z,-3.61
2018-12-18T11:55:22.132Z,-3.62
2018-12-18T11:57:51.048Z,-3.59
2018-12-18T12:00:20.272Z,-3.56
2018-12-18T12:02:49.524Z,-3.58
2018-12-18T12:05:18.298Z,-3.58
2018-12-18T12:07:47.209Z,-3.60
2018-12-18T12:10:15.949Z,-3.60
2018-12-18T12:12:45.966Z,-3.59
2018-12-18T12:15:15.337Z,-3.59
2018-12-18T12:17:44.359Z,-3.63
2018-12-18T12:20:13.113Z,-3.64
2018-12-18T12:22:42.178Z,-3.62
2018-12-18T12:25:11.576Z,-3.62
2018-12-18T12:27:45.500Z,-3.60
2018-12-18T12:30:14.201Z,-3.58
2018-12-18T12:32:43.188Z,-3.55
2018-12-18T12:35:12.565Z,-3.58
2018-12-18T12:37:41.448Z,-3.55
2018-12-18T12:40:10.583Z,-3.52
2018-12-18T12:42:39.601Z,-3.53
2018-12-18T12:45:08.507Z,-3.47
2018-12-18T12:47:37.497Z,-3.46
2018-12-18T12:50:07.355Z,-3.44
2018-12-18T12:52:36.948Z,-3.45
2018-12-18T12:55:06.566Z,-3.45
2018-12-18T12:57:35.252Z,-3.42
2018-12-18T13:00:04.664Z,-3.42
2018-12-18T13:02:33.488Z,-3.42
2018-12-18T13:05:02.870Z,-3.62
2018-12-18T13:07:32.048Z,-3.49
2018-12-18T13:10:00.909Z,-3.45
2018-12-18T13:12:30.868Z,-3.43
2018-12-18T13:15:00.428Z,-3.48
2018-12-18T13:17:29.398Z,-3.52
2018-12-18T13:19:58.146Z,-3.52
2018-12-18T13:22:27.424Z,-3.51
2018-12-18T13:24:56.331Z,-3.54
2018-12-18T13:27:26.285Z,-3.57
2018-12-18T13:29:55.636Z,-3.66
2018-12-18T13:32:24.370Z,-3.60
2018-12-18T13:34:53.480Z,-3.64
2018-12-18T13:37:22.471Z,-4.61
2018-12-18T13:39:51.301Z,-3.69
2018-12-18T13:42:20.011Z,-3.72
2018-12-18T13:44:49.419Z,-3.71
2018-12-18T13:47:18.621Z,-3.69
2018-12-18T13:49:47.621Z,-3.71
2018-12-18T13:52:16.434Z,-3.67
2018-12-18T13:54:45.440Z,-3.71
2018-12-18T13:57:14.526Z,-3.72
2018-12-18T13:59:44.050Z,-3.72
2018-12-18T14:02:13.473Z,-3.92
2018-12-18T14:04:42.915Z,-3.74
2018-12-18T14:07:11.927Z,-3.74
2018-12-18T14:09:41.055Z,-3.75
2018-12-18T14:12:10.131Z,-3.75
2018-12-18T14:14:39.046Z,-3.77
2018-12-18T14:17:07.905Z,-3.78
2018-12-18T14:19:36.719Z,-3.75
2018-12-18T14:22:05.905Z,-3.75
2018-12-18T14:24:34.856Z,-3.76
2018-12-18T14:27:04.145Z,-3.76
2018-12-18T14:29:32.982Z,-3.74
2018-12-18T14:32:01.881Z,-3.75
2018-12-18T14:34:31.196Z,-3.74
2018-12-18T14:37:00.392Z,-3.69
2018-12-18T14:39:29.650Z,-3.68
2018-12-18T14:41:58.896Z,-3.65
2018-12-18T14:44:28.842Z,-3.65
2018-12-18T14:46:57.624Z,-3.61
2018-12-18T14:49:27.096Z,-3.62
2018-12-18T14:51:56.098Z,-3.58
2018-12-18T14:54:24.913Z,-3.57
2018-12-18T14:56:54.419Z,-3.51
2018-12-18T14:59:24.194Z,-3.54
2018-12-18T15:01:53.485Z,-3.50
2018-12-18T15:04:22.596Z,-3.47
2018-12-18T15:06:51.594Z,-3.49
2018-12-18T15:09:20.900Z,-3.49
2018-12-18T15:11:50.370Z,-3.49
2018-12-18T15:14:19.232Z,-3.46
2018-12-18T15:16:48.251Z,-3.41
2018-12-18T15:19:17.096Z,-3.41
2018-12-18T15:21:46.008Z,-3.41
2018-12-18T15:24:15.219Z,-3.44
2018-12-18T15:26:44.313Z,-3.39
2018-12-18T15:29:13.369Z,-3.37
2018-12-18T15:31:42.662Z,-3.37
2018-12-18T15:34:12.088Z,-3.34
2018-12-18T15:36:41.273Z,-3.30
2018-12-18T15:39:10.340Z,-3.35
2018-12-18T15:41:39.115Z,-3.32
2018-12-18T15:44:08.362Z,-3.29
2018-12-18T15:46:37.552Z,-3.26
2018-12-18T15:49:06.300Z,-3.25
2018-12-18T15:51:35.196Z,-3.24
2018-12-18T15:54:04.238Z,-3.24
2018-12-18T15:56:33.596Z,-3.22
2018-12-18T15:59:02.786Z,-3.25
2018-12-18T16:01:31.521Z,-3.23
2018-12-18T16:04:00.882Z,-3.23
2018-12-18T16:06:30.026Z,-3.19
2018-12-18T16:08:59.491Z,-3.17
2018-12-18T16:11:28.240Z,-3.15
2018-12-18T16:13:57.003Z,-4.13
2018-12-18T16:16:26.066Z,-3.11
2018-12-18T16:18:55.076Z,-3.16
2018-12-18T16:21:24.169Z,-3.17
2018-12-18T16:23:53.042Z,-3.17
2018-12-18T16:26:21.862Z,-3.14
2018-12-18T16:28:50.716Z,-3.14
2018-12-18T16:31:19.595Z,-3.11
2018-12-18T16:33:49.029Z,-3.11
2018-12-18T16:36:17.806Z,-3.10
2018-12-18T16:38:46.534Z,-3.06
2018-12-18T16:41:15.548Z,-3.05
2018-12-18T16:43:44.345Z,-3.03
2018-12-18T16:46:13.192Z,-3.04
2018-12-18T16:48:41.909Z,-2.99
2018-12-18T16:51:10.986Z,-2.96
2018-12-18T16:53:39.851Z,-2.96
2018-12-18T16:56:08.497Z,-2.92
2018-12-18T16:58:37.286Z,-2.89
2018-12-18T17:01:06.469Z,-2.87
2018-12-18T17:03:35.380Z,-2.86
2018-12-18T17:06:04.375Z,-2.82
2018-12-18T17:08:33.587Z,-2.83
2018-12-18T17:11:02.316Z,-2.77
2018-12-18T17:13:31.470Z,-2.73
2018-12-18T17:16:00.598Z,-2.73
2018-12-18T17:18:29.617Z,-2.76
2018-12-18T17:20:58.429Z,-2.76
2018-12-18T17:23:27.232Z,-2.72
2018-12-18T17:25:56.272Z,-2.70
2018-12-18T17:28:25.232Z,-2.69
2018-12-18T17:30:54.006Z,-2.69
2018-12-18T17:33:22.925Z,-2.69
2018-12-18T17:35:52.078Z,-2.70
2018-12-18T17:38:21.286Z,-2.66
2018-12-18T17:40:50.357Z,-2.65
2018-12-18T17:43:19.903Z,-2.67
2018-12-18T17:45:49.064Z,-2.68
2018-12-18T17:48:17.870Z,-2.69
2018-12-18T17:50:46.739Z,-2.71
2018-12-18T17:53:15.615Z,-2.73
2018-12-18T17:55:44.486Z,-2.76
2018-12-18T17:58:13.205Z,-2.75
2018-12-18T18:00:42.276Z,-2.73
2018-12-18T18:03:10.956Z,-2.78
2018-12-18T18:05:40.285Z,-2.78
2018-12-18T18:08:09.171Z,-2.76
2018-12-18T18:10:38.080Z,-2.77
2018-12-18T18:13:06.852Z,-2.81
2018-12-18T18:15:36.053Z,-2.79
2018-12-18T18:18:05.264Z,-2.75
2018-12-18T18:20:34.148Z,-2.77
2018-12-18T18:23:03.199Z,-2.78
2018-12-18T18:25:32.040Z,-2.73
2018-12-18T18:28:01.392Z,-2.71
2018-12-18T18:30:30.211Z,-2.70
2018-12-18T18:32:58.973Z,-2.70
2018-12-18T18:35:27.918Z,-2.71
2018-12-18T18:37:57.037Z,-2.66
2018-12-18T18:40:26.282Z,-2.67
2018-12-18T18:42:55.064Z,-2.70
2018-12-18T18:45:23.848Z,-2.72
2018-12-18T18:47:52.621Z,-2.72
2018-12-18T18:50:21.628Z,-2.72
2018-12-18T18:52:50.460Z,-2.76
2018-12-18T18:55:19.461Z,-2.79
2018-12-18T18:57:48.290Z,-2.77
2018-12-18T19:00:17.012Z,-2.78
2018-12-18T19:02:48.218Z,-2.79
2018-12-18T19:05:17.256Z,-2.81
2018-12-18T19:07:46.149Z,-2.79
2018-12-18T19:10:15.386Z,-2.80
2018-12-18T19:12:44.826Z,-2.78
2018-12-18T19:15:14.354Z,-2.77
2018-12-18T19:17:43.389Z,-3.75
2018-12-18T19:20:12.329Z,-2.75
2018-12-18T19:22:41.190Z,-2.73
2018-12-18T19:25:09.996Z,-2.75
2018-12-18T19:27:39.095Z,-2.73
2018-12-18T19:30:08.258Z,-2.72
2018-12-18T19:32:37.211Z,-2.70
2018-12-18T19:35:06.439Z,-2.71
2018-12-18T19:37:35.242Z,-2.68
2018-12-18T19:40:04.303Z,-2.65
2018-12-18T19:42:33.844Z,-2.67
2018-12-18T19:45:02.825Z,-2.69
2018-12-18T19:47:31.695Z,-2.68
2018-12-18T19:50:00.593Z,-2.65
2018-12-18T19:52:29.363Z,-2.66
2018-12-18T19:54:58.107Z,-2.66
2018-12-18T19:57:27.146Z,-2.68
2018-12-18T19:59:55.957Z,-2.69
2018-12-18T20:02:24.878Z,-2.68
2018-12-18T20:04:54.173Z,-2.70
2018-12-18T20:07:22.962Z,-2.69
2018-12-18T20:09:52.122Z,-2.71
2018-12-18T20:12:21.300Z,-2.70
2018-12-18T20:14:50.622Z,-2.66
2018-12-18T20:17:19.649Z,-2.67
2018-12-18T20:19:48.669Z,-2.68
2018-12-18T20:22:18.019Z,-2.65
2018-12-18T20:24:47.389Z,-2.66
2018-12-18T20:27:16.245Z,-2.67
2018-12-18T20:29:45.640Z,-2.64
2018-12-18T20:32:14.563Z,-2.66
2018-12-18T20:34:43.585Z,-2.62
2018-12-18T20:37:18.078Z,-2.61
2018-12-18T20:39:43.554Z,-2.59
2018-12-18T20:42:12.472Z,-2.55
2018-12-18T20:44:41.453Z,-2.52
2018-12-18T20:47:10.536Z,-2.51
2018-12-18T20:49:40.839Z,-2.48
2018-12-18T20:52:10.090Z,-2.46
2018-12-18T20:54:38.993Z,-2.45
2018-12-18T20:57:08.560Z,-2.40
2018-12-18T20:59:37.770Z,-2.39
2018-12-18T21:02:07.127Z,-2.38
2018-12-18T21:04:35.928Z,-2.36
2018-12-18T21:07:04.827Z,-2.33
2018-12-18T21:09:34.258Z,-2.33
2018-12-18T21:12:03.434Z,-2.30
2018-12-18T21:14:32.284Z,-2.27
2018-12-18T21:17:01.439Z,-2.26
2018-12-18T21:19:30.325Z,-2.26
2018-12-18T21:21:59.971Z,-2.28
2018-12-18T21:24:29.363Z,-2.32
2018-12-18T21:26:58.185Z,-2.36
2018-12-18T21:29:27.061Z,-2.31
2018-12-18T21:31:56.095Z,-2.30
2018-12-18T21:34:25.064Z,-2.32
2018-12-18T21:36:54.116Z,-2.34
2018-12-18T21:39:23.265Z,-2.37
2018-12-18T21:41:52.249Z,-2.40
2018-12-18T21:44:21.310Z,-2.32
2018-12-18T21:46:50.618Z,-2.30
2018-12-18T21:49:19.652Z,-2.30
2018-12-18T21:51:48.753Z,-2.31
2018-12-18T21:54:17.968Z,-2.36
2018-12-18T21:56:47.095Z,-2.42
2018-12-18T21:59:16.666Z,-2.41
2018-12-18T22:01:45.500Z,-2.40
2018-12-18T22:04:15.009Z,-2.40
2018-12-18T22:06:43.735Z,-2.37
2018-12-18T22:09:13.038Z,-2.36
2018-12-18T22:11:41.898Z,-2.31
2018-12-18T22:14:10.803Z,-2.30
2018-12-18T22:16:40.221Z,-2.30
2018-12-18T22:19:09.211Z,-2.29
2018-12-18T22:21:38.200Z,-2.25
2018-12-18T22:24:07.142Z,-2.25
2018-12-18T22:26:36.008Z,-2.29
2018-12-18T22:29:05.031Z,-2.26
2018-12-18T22:31:33.893Z,-2.26
2018-12-18T22:34:03.180Z,-2.28
2018-12-18T22:36:32.354Z,-2.30
2018-12-18T22:39:01.439Z,-2.29
2018-12-18T22:41:30.333Z,-2.27
2018-12-18T22:43:59.463Z,-2.28
2018-12-18T22:46:28.441Z,-2.28
2018-12-18T22:48:58.373Z,-2.22
2018-12-18T22:51:27.243Z,-2.24
2018-12-18T22:53:56.169Z,-2.21
2018-12-18T22:56:25.373Z,-2.21
2018-12-18T22:58:54.378Z,-2.18
2018-12-18T23:01:28.769Z,-2.18
2018-12-18T23:03:57.561Z,-2.19
2018-12-18T23:06:26.495Z,-2.18
2018-12-18T23:08:55.512Z,-2.18
2018-12-18T23:11:25.498Z,-2.21
2018-12-18T23:13:54.500Z,-2.21
2018-12-18T23:16:24.029Z,-2.23
2018-12-18T23:18:53.262Z,-2.21
2018-12-18T23:21:21.951Z,-2.27
2018-12-18T23:23:51.153Z,-2.24
2018-12-18T23:26:20.127Z,-2.23
2018-12-18T23:28:48.833Z,-2.26
2018-12-18T23:31:17.959Z,-2.31
2018-12-18T23:33:46.888Z,-2.34
2018-12-18T23:36:15.676Z,-2.37
2018-12-18T23:38:44.696Z,-2.41
2018-12-18T23:41:13.570Z,-2.42
2018-12-18T23:43:42.346Z,-2.46
2018-12-18T23:46:11.096Z,-2.50
2018-12-18T23:48:40.247Z,-2.53
2018-12-18T23:51:09.556Z,-2.51
2018-12-18T23:53:38.828Z,-2.53
2018-12-18T23:56:07.934Z,-2.63
2018-12-18T23:58:36.939Z,-2.68
